Time;durP1;ratioP1;P1;durP2;ratioP2;P2;SDS_P1;SDS_P2;PMS_P1;PMS_P2;Temp;Humidity;BMP_temperature;BMP_pressure;BME280_temperature;BME280_humidity;BME280_pressure;Samples;Min_cycle;Max_cycle;Signal;HPM_P1;HPM_P2
2022/06/23 00:00:09;;;;;;;8.98;4.22;;;27.20;96.00;;;;;;1912100;73;21127;-85
2022/06/23 00:02:40;;;;;;;6.78;3.70;;;27.30;96.10;;;;;;1906454;73;21211;-84
2022/06/23 00:05:14;;;;;;;6.50;3.47;;;27.30;96.00;;;;;;1907563;73;22032;-83
2022/06/23 00:07:47;;;;;;;5.85;3.25;;;27.30;95.90;;;;;;1918907;73;21171;-72
2022/06/23 00:10:20;;;;;;;6.08;3.00;;;27.30;95.90;;;;;;1909133;73;21241;-72
2022/06/23 00:12:52;;;;;;;6.60;3.50;;;27.30;96.00;;;;;;1909133;73;21182;-72
2022/06/23 00:15:27;;;;;;;7.67;3.27;;;27.30;95.90;;;;;;1910888;73;21706;-71
2022/06/23 00:18:00;;;;;;;6.53;3.42;;;27.30;95.90;;;;;;1917890;73;21106;-73
2022/06/23 00:20:33;;;;;;;5.25;3.62;;;27.30;95.90;;;;;;1905815;73;21221;-72
2022/06/23 00:23:07;;;;;;;6.12;3.52;;;27.30;96.00;;;;;;1924231;73;21323;-72
2022/06/23 00:25:40;;;;;;;8.18;3.52;;;27.30;96.00;;;;;;1903081;73;21551;-73
2022/06/23 00:28:13;;;;;;;6.08;3.10;;;27.40;96.00;;;;;;1899079;73;21092;-72
2022/06/23 00:30:45;;;;;;;5.90;3.92;;;27.30;95.90;;;;;;1902717;73;21197;-73
2022/06/23 00:33:18;;;;;;;6.95;3.70;;;27.30;95.90;;;;;;1917101;73;21167;-72
2022/06/23 00:35:51;;;;;;;6.17;3.50;;;27.40;96.10;;;;;;1916705;73;21235;-73
2022/06/23 00:38:24;;;;;;;6.35;4.12;;;27.40;96.20;;;;;;1923419;72;21634;-76
2022/06/23 00:40:58;;;;;;;9.20;3.92;;;27.40;96.40;;;;;;1913221;73;21654;-83
2022/06/23 00:43:32;;;;;;;5.12;3.45;;;27.50;96.10;;;;;;1914378;73;21115;-83
2022/06/23 00:46:05;;;;;;;6.80;4.08;;;27.60;95.80;;;;;;1891738;73;21456;-82
2022/06/23 00:48:39;;;;;;;7.85;4.33;;;27.60;96.00;;;;;;1913748;73;21222;-83
2022/06/23 00:51:13;;;;;;;9.15;4.58;;;27.60;96.10;;;;;;1914391;73;21175;-83
2022/06/23 00:53:46;;;;;;;7.45;4.75;;;27.70;96.00;;;;;;1907631;73;21525;-83
2022/06/23 00:56:20;;;;;;;10.23;4.55;;;27.70;96.10;;;;;;1916907;73;21680;-83
2022/06/23 00:58:53;;;;;;;8.78;4.28;;;27.80;96.00;;;;;;1927016;73;21214;-83
2022/06/23 01:01:27;;;;;;;9.78;4.55;;;27.90;96.20;;;;;;1925812;73;21135;-83
2022/06/23 01:04:00;;;;;;;11.00;5.70;;;28.00;96.10;;;;;;1906400;73;21759;-83
2022/06/23 01:06:34;;;;;;;13.28;4.40;;;28.10;96.00;;;;;;1911818;73;21103;-82
2022/06/23 01:09:07;;;;;;;9.25;4.20;;;28.20;95.70;;;;;;1921140;73;21115;-83
2022/06/23 01:11:40;;;;;;;7.55;4.05;;;28.20;95.70;;;;;;1929255;72;21127;-83
2022/06/23 01:14:14;;;;;;;7.90;4.47;;;28.30;95.60;;;;;;1922547;72;21670;-83
2022/06/23 01:16:47;;;;;;;7.72;4.05;;;28.40;95.50;;;;;;1915395;73;21196;-83
2022/06/23 01:19:22;;;;;;;7.50;3.92;;;28.50;95.30;;;;;;1911889;73;21119;-83
2022/06/23 01:21:55;;;;;;;7.53;4.58;;;28.60;94.70;;;;;;1882582;74;21210;-82
2022/06/23 01:24:28;;;;;;;6.70;4.37;;;28.70;94.70;;;;;;1926167;73;21583;-82
2022/06/23 01:27:02;;;;;;;6.40;4.33;;;28.70;94.70;;;;;;1917079;73;21205;-83
2022/06/23 01:29:37;;;;;;;6.67;4.37;;;28.80;94.70;;;;;;1912506;73;21112;-82
2022/06/23 01:32:11;;;;;;;8.70;3.95;;;28.80;94.60;;;;;;1919581;73;21120;-83
2022/06/23 01:34:45;;;;;;;10.35;3.85;;;28.90;94.50;;;;;;1910070;73;21177;-83
2022/06/23 01:37:27;;;;;;;8.63;3.90;;;29.00;94.40;;;;;;1918857;73;21575;-83
2022/06/23 01:40:00;;;;;;;8.40;4.10;;;29.10;94.30;;;;;;1919516;73;21175;-82
2022/06/23 01:42:38;;;;;;;10.25;4.10;;;29.10;94.20;;;;;;1888749;75;21120;-83
2022/06/23 01:45:11;;;;;;;5.90;4.22;;;29.20;94.20;;;;;;1903083;73;21119;-82
2022/06/23 01:47:46;;;;;;;7.67;3.90;;;29.20;93.80;;;;;;1887189;73;21084;-81
2022/06/23 01:50:22;;;;;;;9.43;4.33;;;29.30;94.00;;;;;;1926366;74;22044;-82
2022/06/23 01:53:03;;;;;;;;;;;29.40;93.90;;;;;;1943926;72;21075;-83
2022/06/23 01:55:39;;;;;;;8.40;4.03;;;29.50;94.00;;;;;;1941456;72;20166;-83
2022/06/23 01:58:12;;;;;;;8.88;4.22;;;29.60;93.60;;;;;;1880470;75;21097;-83
2022/06/23 02:00:46;;;;;;;8.05;3.67;;;29.80;93.60;;;;;;1921982;73;21143;-83
2022/06/23 02:03:19;;;;;;;8.80;3.55;;;29.90;93.30;;;;;;1867722;74;21180;-82
2022/06/23 02:05:53;;;;;;;8.60;4.00;;;30.00;93.30;;;;;;1912104;73;21769;-83
2022/06/23 02:08:27;;;;;;;7.20;4.20;;;30.00;92.90;;;;;;1873183;75;21186;-83
2022/06/23 02:11:00;;;;;;;7.08;4.08;;;30.10;92.60;;;;;;1893280;74;21141;-82
2022/06/23 02:13:33;;;;;;;5.95;3.72;;;30.20;92.50;;;;;;1940425;72;21170;-82
2022/06/23 02:16:07;;;;;;;11.40;4.20;;;30.10;92.80;;;;;;1895965;74;21181;-81
2022/06/23 02:18:40;;;;;;;5.62;3.95;;;30.10;93.00;;;;;;1876428;76;21453;-83
2022/06/23 02:21:14;;;;;;;10.00;4.67;;;30.20;93.00;;;;;;1921022;73;21155;-83
2022/06/23 02:23:47;;;;;;;10.80;3.92;;;30.30;92.60;;;;;;1902512;73;21725;-81
2022/06/23 02:26:21;;;;;;;10.98;4.25;;;30.30;92.60;;;;;;1909315;73;21162;-82
2022/06/23 02:28:54;;;;;;;9.15;3.62;;;30.50;92.40;;;;;;1917157;73;21139;-83
2022/06/23 02:31:28;;;;;;;6.72;3.77;;;30.60;92.10;;;;;;1924230;72;21194;-82
2022/06/23 02:34:01;;;;;;;6.53;3.70;;;30.60;92.10;;;;;;1924225;72;21079;-80
2022/06/23 02:36:34;;;;;;;7.00;4.20;;;30.70;92.00;;;;;;1887135;74;21187;-81
2022/06/23 02:39:09;;;;;;;7.05;3.60;;;30.80;91.60;;;;;;1895979;73;21123;-83
2022/06/23 02:41:44;;;;;;;7.50;4.12;;;30.80;91.40;;;;;;1900561;73;21231;-82
2022/06/23 02:44:17;;;;;;;7.00;4.28;;;30.80;91.50;;;;;;1910644;73;21134;-82
2022/06/23 02:46:50;;;;;;;8.58;4.30;;;30.90;91.70;;;;;;1902797;73;21139;-81
2022/06/23 02:49:24;;;;;;;8.35;4.03;;;31.00;91.90;;;;;;1859850;75;21573;-81
2022/06/23 02:51:58;;;;;;;7.25;4.20;;;31.10;91.20;;;;;;1903853;75;21163;-80
2022/06/23 02:54:33;;;;;;;7.62;4.50;;;31.10;91.10;;;;;;1908244;73;21717;-80
2022/06/23 02:57:06;;;;;;;7.78;4.60;;;31.00;91.20;;;;;;1953353;73;21161;-81
2022/06/23 02:59:41;;;;;;;8.98;4.42;;;30.90;91.10;;;;;;1912075;73;21190;-81
2022/06/23 03:02:14;;;;;;;7.28;4.25;;;30.90;91.20;;;;;;1961390;72;21155;-83
2022/06/23 03:04:48;;;;;;;7.60;3.52;;;31.00;91.40;;;;;;1918036;72;21214;-80
2022/06/23 03:07:21;;;;;;;5.83;3.80;;;31.10;91.20;;;;;;1923866;72;21365;-83
2022/06/23 03:09:55;;;;;;;7.50;4.08;;;31.30;90.90;;;;;;1935412;72;21068;-83
2022/06/23 03:12:29;;;;;;;6.53;3.72;;;31.50;90.30;;;;;;1922889;72;21136;-82
2022/06/23 03:15:03;;;;;;;6.97;4.50;;;31.50;90.20;;;;;;1936433;72;21106;-83
2022/06/23 03:17:36;;;;;;;4.45;3.35;;;31.60;90.40;;;;;;1917273;72;21036;-82
2022/06/23 03:20:10;;;;;;;8.10;3.67;;;31.70;90.50;;;;;;1923786;73;21124;-82
2022/06/23 03:22:55;;;;;;;7.58;3.87;;;31.80;89.80;;;;;;1927502;73;21064;-81
2022/06/23 03:25:29;;;;;;;9.28;4.03;;;31.90;90.00;;;;;;1946120;72;21181;-81
2022/06/23 03:28:05;;;;;;;9.95;4.00;;;32.10;89.30;;;;;;1915160;72;21143;-81
2022/06/23 03:30:39;;;;;;;9.60;4.08;;;32.00;89.00;;;;;;1934035;73;21177;-80
2022/06/23 03:33:13;;;;;;;6.45;3.62;;;32.20;88.40;;;;;;1920976;73;21127;-80
2022/06/23 03:35:47;;;;;;;7.75;3.80;;;32.20;88.50;;;;;;1922452;73;21080;-81
2022/06/23 03:38:20;;;;;;;6.65;3.58;;;32.30;87.70;;;;;;1897818;73;21521;-81
2022/06/23 03:43:34;;;;;;;6.42;3.50;;;32.60;86.10;;;;;;1902250;74;21079;-81
2022/06/23 03:46:06;;;;;;;6.80;3.20;;;32.60;86.30;;;;;;1895183;75;21280;-81
2022/06/23 03:48:44;;;;;;;6.75;3.65;;;32.70;85.80;;;;;;1908778;73;21111;-82
2022/06/23 03:51:16;;;;;;;7.72;4.08;;;32.80;85.50;;;;;;1928230;73;21548;-81
2022/06/23 03:53:49;;;;;;;5.75;3.60;;;32.80;85.00;;;;;;1939702;73;21587;-83
2022/06/23 03:56:23;;;;;;;5.00;2.92;;;32.90;85.00;;;;;;1925761;73;21190;-82
2022/06/23 03:58:56;;;;;;;5.60;3.25;;;33.00;84.20;;;;;;1939118;72;21672;-81
2022/06/23 04:01:29;;;;;;;7.22;3.52;;;33.10;85.30;;;;;;1925625;74;21106;-81
2022/06/23 04:04:03;;;;;;;10.13;3.37;;;33.20;83.60;;;;;;1900148;73;21504;-82
2022/06/23 04:06:36;;;;;;;6.35;3.70;;;33.30;81.80;;;;;;1908797;73;21269;-81
2022/06/23 04:09:10;;;;;;;5.35;3.12;;;33.10;82.90;;;;;;1898460;73;21140;-81
2022/06/23 04:11:44;;;;;;;7.35;3.40;;;33.00;83.80;;;;;;1899070;75;22297;-80
2022/06/23 04:14:20;;;;;;;8.35;2.67;;;32.80;84.10;;;;;;1901895;74;21108;-81
2022/06/23 04:16:54;;;;;;;6.10;3.30;;;32.90;83.20;;;;;;1904542;74;21049;-79
2022/06/23 04:19:32;;;;;;;5.25;2.98;;;32.90;82.30;;;;;;1924911;73;21700;-82
2022/06/23 04:22:04;;;;;;;5.42;3.27;;;33.00;83.10;;;;;;1907794;74;21462;-81
2022/06/23 04:24:38;;;;;;;7.37;3.10;;;33.10;83.10;;;;;;1910515;73;21147;-82
2022/06/23 04:27:12;;;;;;;7.17;3.45;;;33.00;83.30;;;;;;1935577;73;21080;-81
2022/06/23 04:29:43;;;;;;;6.80;3.20;;;32.80;83.40;;;;;;1945772;72;21131;-81
2022/06/23 04:32:16;;;;;;;5.15;3.40;;;32.70;83.00;;;;;;1923504;73;21686;-80
2022/06/23 04:34:49;;;;;;;4.83;3.10;;;32.60;83.00;;;;;;1919573;73;21143;-80
2022/06/23 04:37:23;;;;;;;7.53;3.02;;;32.50;83.70;;;;;;1910744;73;21185;-82
2022/06/23 04:39:56;;;;;;;3.52;2.65;;;32.40;84.50;;;;;;1958153;73;21107;-81
2022/06/23 04:42:31;;;;;;;6.12;3.37;;;32.40;83.80;;;;;;1921352;73;21244;-81
2022/06/23 04:45:03;;;;;;;6.37;3.30;;;32.40;83.50;;;;;;1931850;73;21677;-81
2022/06/23 04:47:37;;;;;;;4.60;2.80;;;32.50;83.10;;;;;;1912271;73;21688;-81
2022/06/23 04:50:10;;;;;;;4.92;2.72;;;32.70;81.10;;;;;;1927931;73;21131;-81
2022/06/23 04:52:46;;;;;;;3.58;2.15;;;32.80;79.50;;;;;;1922227;73;21100;-80
2022/06/23 04:55:22;;;;;;;4.65;1.80;;;33.00;79.00;;;;;;1925755;73;21173;-80
2022/06/23 04:57:55;;;;;;;4.17;2.52;;;33.10;77.70;;;;;;1927430;72;21216;-81
2022/06/23 05:00:28;;;;;;;4.65;2.22;;;33.30;77.20;;;;;;1966946;73;21123;-82
2022/06/23 05:03:02;;;;;;;4.83;1.82;;;33.40;77.90;;;;;;1967947;72;21126;-81
2022/06/23 05:05:35;;;;;;;4.17;2.30;;;33.40;77.60;;;;;;1941209;72;21080;-81
2022/06/23 05:08:11;;;;;;;4.67;2.10;;;33.50;76.60;;;;;;1932229;72;21628;-80
2022/06/23 05:10:47;;;;;;;4.78;2.15;;;33.40;77.80;;;;;;1947076;72;21165;-81
2022/06/23 05:13:20;;;;;;;3.72;1.90;;;33.40;76.10;;;;;;1941749;72;21115;-80
2022/06/23 05:15:53;;;;;;;4.72;2.20;;;33.40;75.30;;;;;;1925876;73;21103;-79
2022/06/23 05:18:27;;;;;;;5.05;2.75;;;33.40;75.70;;;;;;1906757;74;21261;-82
2022/06/23 05:21:05;;;;;;;5.05;1.75;;;33.30;76.40;;;;;;1921736;73;21134;-81
2022/06/23 05:23:49;;;;;;;3.05;1.80;;;33.20;75.90;;;;;;1928390;73;21233;-81
2022/06/23 05:26:23;;;;;;;3.30;1.50;;;33.10;75.70;;;;;;1924753;73;21182;-81
2022/06/23 05:28:57;;;;;;;2.55;1.60;;;33.00;74.50;;;;;;1880542;75;21247;-81
2022/06/23 05:31:30;;;;;;;3.05;1.30;;;32.90;73.20;;;;;;1847636;76;21987;-80
2022/06/23 05:34:04;;;;;;;6.70;1.90;;;32.90;72.40;;;;;;1940796;73;21681;-82
2022/06/23 05:36:37;;;;;;;3.33;1.50;;;33.00;74.70;;;;;;1898330;73;21704;-81
2022/06/23 05:39:10;;;;;;;4.00;1.57;;;33.10;74.80;;;;;;1914936;73;22060;-82
2022/06/23 05:41:44;;;;;;;4.12;1.67;;;33.20;73.00;;;;;;1941748;73;21104;-82
2022/06/23 05:44:18;;;;;;;7.05;2.00;;;33.30;73.00;;;;;;1956092;73;21488;-81
2022/06/23 05:46:50;;;;;;;2.45;1.62;;;33.50;74.50;;;;;;1944481;73;21192;-82
2022/06/23 05:49:25;;;;;;;7.05;1.67;;;33.50;72.90;;;;;;1955946;73;21560;-81
2022/06/23 05:51:59;;;;;;;3.17;1.52;;;33.50;71.50;;;;;;1960680;73;21037;-81
2022/06/23 05:54:35;;;;;;;2.47;1.52;;;33.40;72.30;;;;;;1950502;73;21171;-81
2022/06/23 05:57:08;;;;;;;3.08;1.57;;;33.30;72.20;;;;;;1926692;73;21147;-80
2022/06/23 05:59:47;;;;;;;5.58;1.60;;;33.30;73.20;;;;;;1905726;73;21100;-81
2022/06/23 06:02:20;;;;;;;2.92;1.52;;;33.30;73.00;;;;;;1913260;73;21111;-81
2022/06/23 06:04:54;;;;;;;2.85;1.60;;;33.50;74.40;;;;;;1949702;73;21064;-80
2022/06/23 06:07:28;;;;;;;6.08;2.33;;;33.50;72.90;;;;;;1949468;73;21146;-81
2022/06/23 06:10:00;;;;;;;2.77;1.67;;;33.70;72.10;;;;;;1954955;73;21128;-80
2022/06/23 06:12:33;;;;;;;3.92;1.95;;;33.80;72.10;;;;;;1945801;73;21181;-82
2022/06/23 06:15:07;;;;;;;4.72;2.00;;;34.00;74.60;;;;;;1914293;73;21147;-80
2022/06/23 06:17:38;;;;;;;4.08;2.40;;;34.10;75.40;;;;;;1954896;73;21131;-82
2022/06/23 06:20:14;;;;;;;6.97;2.20;;;34.10;75.10;;;;;;1942495;73;21673;-82
2022/06/23 06:22:47;;;;;;;3.98;2.12;;;34.00;75.40;;;;;;1916593;73;21157;-81
2022/06/23 06:25:20;;;;;;;3.40;1.98;;;33.90;76.00;;;;;;1920105;73;21647;-81
2022/06/23 06:27:53;;;;;;;5.92;2.40;;;33.80;76.10;;;;;;1929775;73;21052;-83
2022/06/23 06:30:27;;;;;;;8.28;3.15;;;33.70;76.10;;;;;;1897439;71;21110;-82
2022/06/23 06:32:58;;;;;;;4.55;2.22;;;33.60;75.80;;;;;;1857770;76;21137;-83
2022/06/23 06:35:32;;;;;;;3.27;2.00;;;33.50;75.70;;;;;;1857789;76;21158;-81
2022/06/23 06:38:12;;;;;;;3.08;2.10;;;33.30;76.00;;;;;;1861416;76;21162;-83
2022/06/23 06:40:41;;;;;;;3.87;2.33;;;33.30;76.90;;;;;;1886614;75;21617;-80
2022/06/23 06:43:15;;;;;;;5.83;2.20;;;33.30;78.40;;;;;;1871909;75;21138;-82
2022/06/23 06:45:53;;;;;;;4.67;2.30;;;33.30;77.70;;;;;;1863313;76;21122;-83
2022/06/23 06:48:30;;;;;;;5.67;2.22;;;33.30;77.20;;;;;;1878353;76;21154;-83
2022/06/23 06:51:04;;;;;;;4.28;1.82;;;33.40;75.50;;;;;;1874623;76;21095;-83
2022/06/23 06:53:38;;;;;;;5.62;2.10;;;33.50;75.40;;;;;;1857467;76;21181;-83
2022/06/23 06:56:13;;;;;;;4.15;2.15;;;33.50;76.10;;;;;;1873992;76;21126;-81
2022/06/23 06:58:51;;;;;;;6.78;1.98;;;33.50;75.80;;;;;;1859148;76;21134;-82
2022/06/23 07:01:24;;;;;;;5.45;2.22;;;33.50;75.30;;;;;;1847852;76;21118;-83
2022/06/23 07:03:56;;;;;;;4.25;1.92;;;33.50;75.20;;;;;;1857060;76;21129;-83
2022/06/23 07:06:30;;;;;;;4.35;1.75;;;33.40;75.80;;;;;;1861846;76;21153;-83
2022/06/23 07:09:03;;;;;;;6.00;1.77;;;33.30;75.30;;;;;;1880137;76;21134;-82
2022/06/23 07:11:37;;;;;;;3.27;1.95;;;33.30;76.20;;;;;;1888035;75;21082;-84
2022/06/23 07:14:27;;;;;;;3.90;1.70;;;33.20;75.40;;;;;;1877668;75;21122;-82
2022/06/23 07:17:19;;;;;;;4.67;1.95;;;33.20;74.70;;;;;;1765622;80;21616;-82
2022/06/23 07:19:54;;;;;;;4.30;2.10;;;33.10;75.10;;;;;;1782114;80;21222;-82
2022/06/23 07:22:39;;;;;;;3.00;1.80;;;33.10;75.40;;;;;;1743316;79;21495;-84
2022/06/23 07:25:21;;;;;;;4.50;1.98;;;33.10;74.90;;;;;;1758681;81;21171;-84
2022/06/23 07:27:51;;;;;;;3.12;1.80;;;33.10;74.60;;;;;;1760897;81;21656;-83
2022/06/23 07:30:26;;;;;;;5.25;1.82;;;33.10;74.90;;;;;;1761944;80;21211;-84
2022/06/23 07:32:59;;;;;;;3.92;1.90;;;33.10;75.10;;;;;;1779116;80;21251;-82
2022/06/23 07:35:32;;;;;;;5.05;1.60;;;33.00;75.50;;;;;;1757234;80;21277;-83
2022/06/23 07:38:05;;;;;;;4.40;1.60;;;33.10;75.70;;;;;;1768549;80;21186;-83
2022/06/23 07:40:39;;;;;;;3.22;1.80;;;33.00;75.60;;;;;;1783950;80;21264;-84
2022/06/23 07:43:12;;;;;;;3.25;1.80;;;33.00;75.60;;;;;;1780516;80;21116;-83
2022/06/23 07:45:45;;;;;;;5.30;2.17;;;33.00;75.80;;;;;;1731684;82;21155;-84
2022/06/23 07:48:17;;;;;;;5.30;2.12;;;32.90;76.30;;;;;;1778635;80;21316;-83
2022/06/23 07:50:48;;;;;;;3.52;2.10;;;33.00;76.20;;;;;;1778112;80;21685;-83
2022/06/23 07:53:21;;;;;;;4.28;2.30;;;32.90;76.70;;;;;;1780579;77;22138;-82
2022/06/23 07:55:53;;;;;;;3.02;1.72;;;32.90;76.90;;;;;;1865713;76;21696;-82
2022/06/23 07:58:30;;;;;;;7.12;2.00;;;32.90;75.80;;;;;;1875309;74;21122;-83
2022/06/23 08:01:05;;;;;;;3.55;1.90;;;32.90;76.50;;;;;;1848949;76;21173;-83
2022/06/23 08:03:38;;;;;;;4.55;2.42;;;32.90;77.10;;;;;;1869027;76;21084;-83
2022/06/23 08:06:12;;;;;;;5.65;2.33;;;33.00;77.50;;;;;;1873678;76;21111;-84
2022/06/23 08:08:46;;;;;;;4.40;2.42;;;33.00;78.10;;;;;;1868478;76;21642;-83
2022/06/23 08:13:53;;;;;;;4.20;2.05;;;33.00;77.60;;;;;;1871729;76;21095;-83
2022/06/23 08:19:05;;;;;;;3.05;2.02;;;33.00;75.70;;;;;;1875589;76;21503;-84
2022/06/23 08:21:41;;;;;;;5.87;2.40;;;33.10;76.20;;;;;;1874210;76;21672;-85
2022/06/23 08:24:15;;;;;;;4.53;2.45;;;33.10;76.90;;;;;;1858186;76;21170;-84
2022/06/23 08:26:49;;;;;;;4.30;2.30;;;33.20;77.00;;;;;;1871299;76;21079;-81
2022/06/23 08:29:27;;;;;;;3.92;2.05;;;33.20;77.10;;;;;;1869978;76;21262;-85
2022/06/23 08:32:01;;;;;;;4.90;2.20;;;33.30;76.80;;;;;;1857415;76;21666;-85
2022/06/23 08:34:34;;;;;;;3.47;2.40;;;33.30;75.50;;;;;;1865391;76;21610;-84
2022/06/23 08:37:09;;;;;;;5.15;1.98;;;33.40;75.30;;;;;;1862613;76;21141;-86
2022/06/23 08:39:45;;;;;;;4.85;1.87;;;33.40;75.00;;;;;;1875901;76;21678;-82
2022/06/23 08:42:18;;;;;;;4.92;1.87;;;33.30;74.80;;;;;;1860184;76;21135;-86
2022/06/23 08:45:14;;;;;;;2.67;1.77;;;33.30;75.10;;;;;;1864396;76;21202;-83
2022/06/23 08:47:49;;;;;;;5.00;2.22;;;33.30;74.80;;;;;;1881219;76;21146;-84
2022/06/23 08:50:23;;;;;;;4.97;1.90;;;33.30;75.20;;;;;;1837815;78;21087;-83
2022/06/23 08:53:01;;;;;;;5.55;2.05;;;33.30;75.50;;;;;;1818946;77;21700;-84
2022/06/23 08:55:31;;;;;;;6.17;2.25;;;33.30;75.50;;;;;;1859122;76;21155;-84
2022/06/23 08:58:06;;;;;;;3.53;2.03;;;33.30;75.50;;;;;;1858447;76;21166;-84
2022/06/23 09:00:40;;;;;;;3.30;2.00;;;33.30;75.40;;;;;;1869794;76;21083;-84
2022/06/23 09:03:14;;;;;;;4.53;2.10;;;33.20;75.80;;;;;;1865166;76;21637;-84
2022/06/23 09:05:47;;;;;;;4.53;2.30;;;33.20;76.00;;;;;;1860512;76;21648;-84
2022/06/23 09:08:21;;;;;;;5.80;2.42;;;33.20;76.70;;;;;;1853048;76;21643;-82
2022/06/23 09:10:56;;;;;;;5.60;2.05;;;33.20;76.70;;;;;;1855981;76;21210;-84
2022/06/23 09:13:29;;;;;;;4.33;2.10;;;33.20;76.90;;;;;;1863235;76;21169;-83
2022/06/23 09:16:07;;;;;;;4.15;2.22;;;33.20;76.90;;;;;;1854608;76;21139;-83
2022/06/23 09:18:37;;;;;;;7.28;2.30;;;33.10;77.20;;;;;;1878305;75;21492;-84
2022/06/23 09:21:11;;;;;;;4.78;2.12;;;33.10;78.40;;;;;;1861892;76;21131;-84
2022/06/23 09:23:46;;;;;;;6.10;2.52;;;33.00;78.30;;;;;;1861496;75;21208;-84
2022/06/23 09:26:19;;;;;;;7.78;3.10;;;32.80;78.20;;;;;;1855815;76;21159;-84
2022/06/23 09:28:52;;;;;;;7.95;2.60;;;32.50;78.90;;;;;;1876481;76;21241;-83
2022/06/23 09:31:29;;;;;;;4.45;2.90;;;32.30;79.60;;;;;;1866426;75;21217;-83
2022/06/23 09:34:00;;;;;;;;;;;32.20;80.40;;;;;;1882728;75;21683;-82
2022/06/23 09:36:33;;;;;;;6.58;3.08;;;32.10;81.00;;;;;;1893175;75;20183;-84
2022/06/23 09:39:06;;;;;;;4.12;2.40;;;32.10;81.10;;;;;;1883548;73;21156;-85
2022/06/23 09:41:43;;;;;;;5.95;2.60;;;32.10;81.60;;;;;;1892858;74;21139;-85
2022/06/23 09:44:17;;;;;;;4.45;2.40;;;32.00;82.10;;;;;;1885277;73;21173;-83
2022/06/23 09:46:50;;;;;;;7.83;2.83;;;31.90;82.60;;;;;;1885145;74;21127;-82
2022/06/23 09:49:23;;;;;;;4.95;2.65;;;31.80;82.70;;;;;;1889287;73;21312;-83
2022/06/23 09:51:57;;;;;;;6.90;2.35;;;31.80;82.10;;;;;;1888132;74;21157;-83
2022/06/23 09:55:04;;;;;;;4.70;2.45;;;31.70;81.40;;;;;;1900371;73;21150;-82
2022/06/23 09:57:41;;;;;;;6.87;2.33;;;31.70;81.50;;;;;;1888632;74;21095;-82
2022/06/23 10:00:18;;;;;;;7.12;2.33;;;31.60;81.30;;;;;;1879080;74;21074;-84
2022/06/23 10:02:54;;;;;;;4.53;2.47;;;31.60;81.30;;;;;;1869611;75;21224;-84
2022/06/23 10:05:29;;;;;;;;;;;31.60;80.90;;;;;;1875904;75;21764;-84
2022/06/23 10:08:02;;;;;;;3.77;2.52;;;31.60;81.20;;;;;;1844738;77;20243;-82
2022/06/23 10:10:35;;;;;;;4.58;2.10;;;31.50;80.00;;;;;;1882086;75;21272;-85
2022/06/23 10:13:11;;;;;;;4.10;1.92;;;31.50;79.80;;;;;;1889291;75;21166;-84
2022/06/23 10:15:45;;;;;;;2.85;1.70;;;31.40;79.80;;;;;;1884112;75;21216;-85
2022/06/23 10:18:18;;;;;;;2.72;1.60;;;31.40;79.60;;;;;;1876815;75;21075;-86
2022/06/23 10:20:52;;;;;;;3.98;1.65;;;31.30;79.80;;;;;;1873371;75;21150;-84
2022/06/23 10:23:25;;;;;;;3.70;1.80;;;31.30;79.90;;;;;;1881848;75;21088;-85
2022/06/23 10:25:58;;;;;;;4.62;1.22;;;31.30;78.70;;;;;;1875929;75;21111;-85
2022/06/23 10:28:33;;;;;;;4.55;1.77;;;31.20;78.20;;;;;;1885825;75;21182;-85
2022/06/23 10:31:06;;;;;;;5.65;1.87;;;31.20;78.40;;;;;;1869775;75;21540;-83
2022/06/23 10:33:40;;;;;;;5.37;1.90;;;31.20;78.80;;;;;;1877183;75;21131;-84
2022/06/23 10:36:17;;;;;;;5.75;1.75;;;31.30;79.10;;;;;;1869099;75;21137;-83
2022/06/23 10:38:53;;;;;;;4.37;1.50;;;31.30;79.30;;;;;;1880679;75;21076;-83
2022/06/23 10:41:25;;;;;;;4.90;1.52;;;31.30;78.70;;;;;;1882332;75;21091;-83
2022/06/23 10:44:00;;;;;;;4.78;1.70;;;31.30;79.00;;;;;;1882620;75;21208;-83
2022/06/23 10:46:33;;;;;;;4.20;1.62;;;31.30;79.20;;;;;;1883181;75;21150;-84
2022/06/23 10:49:10;;;;;;;6.12;2.10;;;31.30;79.40;;;;;;1869103;77;21233;-83
2022/06/23 10:51:47;;;;;;;5.17;1.85;;;31.30;79.60;;;;;;1889289;75;21095;-82
2022/06/23 10:54:21;;;;;;;3.52;2.05;;;31.30;79.70;;;;;;1876572;75;22289;-84
2022/06/23 10:56:54;;;;;;;3.98;2.12;;;31.30;79.40;;;;;;1890964;75;21162;-83
2022/06/23 10:59:28;;;;;;;3.62;2.37;;;31.30;79.70;;;;;;1877925;75;21170;-83
2022/06/23 11:02:01;;;;;;;5.37;2.37;;;31.40;79.70;;;;;;1881643;75;21114;-83
2022/06/23 11:04:35;;;;;;;4.22;2.40;;;31.50;79.40;;;;;;1884997;75;21087;-84
2022/06/23 11:07:08;;;;;;;5.47;2.20;;;31.40;79.10;;;;;;1896835;73;21131;-83
2022/06/23 11:09:41;;;;;;;6.05;2.45;;;31.50;79.20;;;;;;1893021;75;21240;-82
2022/06/23 11:12:15;;;;;;;3.02;1.70;;;31.50;78.50;;;;;;1867843;76;21155;-84
2022/06/23 11:14:48;;;;;;;5.35;2.15;;;31.50;77.70;;;;;;1867611;76;21167;-82
2022/06/23 11:17:21;;;;;;;3.40;1.27;;;31.50;76.50;;;;;;1896722;75;21178;-83
2022/06/23 11:19:55;;;;;;;5.30;2.20;;;31.50;76.30;;;;;;1899034;75;21163;-82
2022/06/23 11:22:28;;;;;;;5.12;2.30;;;31.50;76.70;;;;;;1877833;75;21343;-83
2022/06/23 11:25:02;;;;;;;4.45;2.42;;;31.40;77.30;;;;;;1890375;75;21162;-83
2022/06/23 11:27:37;;;;;;;4.03;2.58;;;31.40;77.80;;;;;;1876192;75;21147;-82
2022/06/23 11:30:14;;;;;;;6.03;3.22;;;31.40;78.10;;;;;;1873632;75;21184;-82
2022/06/23 11:32:47;;;;;;;6.08;3.70;;;31.40;78.20;;;;;;1872087;75;21289;-83
2022/06/23 11:35:24;;;;;;;10.58;5.67;;;31.40;78.50;;;;;;1865821;76;21139;-83
2022/06/23 11:37:58;;;;;;;14.70;8.93;;;31.40;78.70;;;;;;1873117;76;21076;-83
2022/06/23 11:40:32;;;;;;;10.58;4.70;;;31.40;78.70;;;;;;1872690;76;21199;-84
2022/06/23 11:43:05;;;;;;;7.45;4.37;;;31.40;78.40;;;;;;1871258;76;21144;-84
2022/06/23 11:45:38;;;;;;;7.65;4.22;;;31.30;78.70;;;;;;1878170;76;21159;-81
2022/06/23 11:48:13;;;;;;;7.62;3.58;;;31.30;79.10;;;;;;1862615;76;21139;-82
2022/06/23 11:50:49;;;;;;;8.68;4.20;;;31.30;79.60;;;;;;1879256;75;21549;-83
2022/06/23 11:53:23;;;;;;;7.03;4.10;;;31.30;80.00;;;;;;1864080;76;21218;-84
2022/06/23 11:55:56;;;;;;;6.87;3.87;;;31.30;80.90;;;;;;1868720;76;21152;-83
2022/06/23 11:58:29;;;;;;;6.25;3.80;;;31.20;81.50;;;;;;1865006;76;21092;-83
2022/06/23 12:01:16;;;;;;;10.00;3.67;;;31.20;82.10;;;;;;1865708;76;21132;-83
2022/06/23 12:03:37;;;;;;;4.75;3.40;;;31.10;82.50;;;;;;1855057;76;21194;-83
2022/06/23 12:06:11;;;;;;;8.68;3.40;;;31.00;82.80;;;;;;1872423;76;21135;-84
2022/06/23 12:08:44;;;;;;;9.35;3.50;;;30.90;82.70;;;;;;1861859;77;21123;-84
2022/06/23 12:11:15;;;;;;;5.53;2.92;;;30.90;83.10;;;;;;1861705;76;22680;-84
2022/06/23 12:13:47;;;;;;;9.03;3.45;;;30.80;82.90;;;;;;1866746;76;21714;-84
2022/06/23 12:16:19;;;;;;;5.22;2.80;;;30.80;83.00;;;;;;1873048;76;21134;-84
2022/06/23 12:18:52;;;;;;;5.50;2.90;;;30.70;83.10;;;;;;1866403;76;21088;-84
2022/06/23 12:21:31;;;;;;;4.53;2.72;;;30.70;83.60;;;;;;1869257;76;21268;-83
2022/06/23 12:24:10;;;;;;;7.45;3.27;;;30.70;83.80;;;;;;1865560;76;21214;-84
2022/06/23 12:26:43;;;;;;;5.75;3.45;;;30.60;84.10;;;;;;1824629;78;21087;-84
2022/06/23 12:29:21;;;;;;;5.92;3.47;;;30.60;84.20;;;;;;1864574;76;21504;-84
2022/06/23 12:31:53;;;;;;;4.50;2.95;;;30.50;84.00;;;;;;1857206;76;21158;-83
2022/06/23 12:34:44;;;;;;;4.65;3.17;;;30.50;84.10;;;;;;1860468;76;21087;-83
2022/06/23 12:37:18;;;;;;;5.65;3.37;;;30.50;84.50;;;;;;1861069;76;21132;-84
2022/06/23 12:39:51;;;;;;;5.83;3.02;;;30.40;84.40;;;;;;1876245;76;21616;-84
2022/06/23 12:42:25;;;;;;;4.50;3.12;;;30.40;84.40;;;;;;1868805;76;21096;-84
2022/06/23 12:44:58;;;;;;;4.05;2.85;;;30.30;84.40;;;;;;1859483;76;21646;-83
2022/06/23 12:47:34;;;;;;;5.20;2.87;;;30.30;84.60;;;;;;1871523;76;21144;-83
2022/06/23 12:50:06;;;;;;;6.28;3.37;;;30.30;84.70;;;;;;1866859;76;21080;-84
2022/06/23 12:52:40;;;;;;;3.67;2.42;;;30.30;85.10;;;;;;1864475;75;21155;-83
2022/06/23 12:55:13;;;;;;;5.15;3.00;;;30.30;85.40;;;;;;1872660;76;21143;-83
2022/06/23 12:57:47;;;;;;;6.28;2.80;;;30.30;85.90;;;;;;1877438;76;21228;-83
2022/06/23 13:00:21;;;;;;;7.00;2.87;;;30.30;86.00;;;;;;1862091;76;21196;-83
2022/06/23 13:02:55;;;;;;;6.67;2.72;;;30.30;86.10;;;;;;1868165;76;21276;-82
2022/06/23 13:05:30;;;;;;;9.78;3.37;;;30.30;86.20;;;;;;1854771;76;21108;-83
2022/06/23 13:08:04;;;;;;;5.55;2.62;;;30.20;86.30;;;;;;1866111;76;21571;-84
2022/06/23 13:10:37;;;;;;;7.42;2.62;;;30.30;86.40;;;;;;1854731;76;21283;-83
2022/06/23 13:13:10;;;;;;;5.12;2.70;;;30.30;86.40;;;;;;1858145;76;21217;-83
2022/06/23 13:15:44;;;;;;;4.28;2.62;;;30.20;86.60;;;;;;1850924;76;21151;-86
2022/06/23 13:18:18;;;;;;;7.47;3.17;;;30.20;86.60;;;;;;1850743;76;21159;-83
2022/06/23 13:20:51;;;;;;;7.17;3.33;;;30.10;86.30;;;;;;1866729;76;21173;-83
2022/06/23 13:23:28;;;;;;;6.42;2.98;;;30.20;86.40;;;;;;1850452;76;21142;-83
2022/06/23 13:25:59;;;;;;;5.40;2.83;;;30.20;86.50;;;;;;1862201;76;21287;-84
2022/06/23 13:28:36;;;;;;;5.78;2.87;;;30.20;86.40;;;;;;1871475;76;21128;-83
2022/06/23 13:31:09;;;;;;;6.50;2.95;;;30.20;86.50;;;;;;1858197;76;21132;-84